sensor_id;sensor_type;location;lat;lon;timestamp;temperature;humidity
35246;DHT22;21379;50.962;6.960;2022-10-18T00:01:09;17.50;99.90
35246;DHT22;21379;50.962;6.960;2022-10-18T00:03:36;17.50;99.90
35246;DHT22;21379;50.962;6.960;2022-10-18T00:06:05;17.40;99.90
35246;DHT22;21379;50.962;6.960;2022-10-18T00:08:33;17.50;99.90
35246;DHT22;21379;50.962;6.960;2022-10-18T00:11:00;17.50;99.90
35246;DHT22;21379;50.962;6.960;2022-10-18T00:13:27;17.50;99.90
35246;DHT22;21379;50.962;6.960;2022-10-18T00:15:56;17.50;99.90
35246;DHT22;21379;50.962;6.960;2022-10-18T00:18:23;17.50;99.90
35246;DHT22;21379;50.962;6.960;2022-10-18T00:20:58;17.50;99.90
35246;DHT22;21379;50.962;6.960;2022-10-18T00:23:27;17.60;99.90
35246;DHT22;21379;50.962;6.960;2022-10-18T00:25:59;17.60;99.90
35246;DHT22;21379;50.962;6.960;2022-10-18T00:28:26;17.50;99.90
35246;DHT22;21379;50.962;6.960;2022-10-18T00:30:53;17.60;99.90
35246;DHT22;21379;50.962;6.960;2022-10-18T00:33:20;17.60;99.90
35246;DHT22;21379;50.962;6.960;2022-10-18T00:35:47;17.50;99.90
35246;DHT22;21379;50.962;6.960;2022-10-18T00:38:14;17.50;99.90
35246;DHT22;21379;50.962;6.960;2022-10-18T00:40:42;17.60;99.90
35246;DHT22;21379;50.962;6.960;2022-10-18T00:43:14;17.60;99.90
35246;DHT22;21379;50.962;6.960;2022-10-18T00:45:41;17.60;99.90
35246;DHT22;21379;50.962;6.960;2022-10-18T00:48:09;17.60;99.90
35246;DHT22;21379;50.962;6.960;2022-10-18T00:50:37;17.60;99.90
35246;DHT22;21379;50.962;6.960;2022-10-18T00:53:07;17.70;99.90
35246;DHT22;21379;50.962;6.960;2022-10-18T00:55:35;17.70;99.90
35246;DHT22;21379;50.962;6.960;2022-10-18T00:58:04;17.60;99.90
35246;DHT22;21379;50.962;6.960;2022-10-18T01:00:31;17.70;99.90
35246;DHT22;21379;50.962;6.960;2022-10-18T01:03:03;17.70;99.90
35246;DHT22;21379;50.962;6.960;2022-10-18T01:05:31;17.70;99.90
35246;DHT22;21379;50.962;6.960;2022-10-18T01:08:11;17.80;99.90
35246;DHT22;21379;50.962;6.960;2022-10-18T01:10:48;17.80;99.90
35246;DHT22;21379;50.962;6.960;2022-10-18T01:13:29;17.80;99.90
35246;DHT22;21379;50.962;6.960;2022-10-18T01:15:59;17.90;99.90
35246;DHT22;21379;50.962;6.960;2022-10-18T01:18:32;17.90;99.90
35246;DHT22;21379;50.962;6.960;2022-10-18T01:21:12;17.90;99.90
35246;DHT22;21379;50.962;6.960;2022-10-18T01:26:59;17.90;99.90
35246;DHT22;21379;50.962;6.960;2022-10-18T01:29:40;17.90;99.90
35246;DHT22;21379;50.962;6.960;2022-10-18T01:32:13;17.90;99.90
35246;DHT22;21379;50.962;6.960;2022-10-18T01:34:42;18.00;99.90
35246;DHT22;21379;50.962;6.960;2022-10-18T01:37:13;18.00;99.90
35246;DHT22;21379;50.962;6.960;2022-10-18T01:39:45;18.00;99.90
35246;DHT22;21379;50.962;6.960;2022-10-18T01:42:16;18.10;99.90
35246;DHT22;21379;50.962;6.960;2022-10-18T01:44:44;18.10;99.90
35246;DHT22;21379;50.962;6.960;2022-10-18T01:47:13;18.00;99.90
35246;DHT22;21379;50.962;6.960;2022-10-18T01:49:40;18.00;99.90
35246;DHT22;21379;50.962;6.960;2022-10-18T01:52:09;18.00;99.90
35246;DHT22;21379;50.962;6.960;2022-10-18T01:54:40;18.00;99.90
35246;DHT22;21379;50.962;6.960;2022-10-18T01:57:13;18.00;99.90
35246;DHT22;21379;50.962;6.960;2022-10-18T01:59:45;18.00;99.90
35246;DHT22;21379;50.962;6.960;2022-10-18T02:02:25;18.00;99.90
35246;DHT22;21379;50.962;6.960;2022-10-18T02:05:00;17.90;99.90
35246;DHT22;21379;50.962;6.960;2022-10-18T02:07:31;17.90;99.90
35246;DHT22;21379;50.962;6.960;2022-10-18T02:10:04;17.90;99.90
35246;DHT22;21379;50.962;6.960;2022-10-18T02:12:34;18.00;99.90
35246;DHT22;21379;50.962;6.960;2022-10-18T02:15:03;18.00;99.90
35246;DHT22;21379;50.962;6.960;2022-10-18T02:17:32;17.90;99.90
35246;DHT22;21379;50.962;6.960;2022-10-18T02:20:00;17.90;99.90
35246;DHT22;21379;50.962;6.960;2022-10-18T02:22:31;18.00;99.90
35246;DHT22;21379;50.962;6.960;2022-10-18T02:25:01;18.00;99.90
35246;DHT22;21379;50.962;6.960;2022-10-18T02:27:29;18.00;99.90
35246;DHT22;21379;50.962;6.960;2022-10-18T02:29:56;18.00;99.90
35246;DHT22;21379;50.962;6.960;2022-10-18T02:32:27;18.00;99.90
35246;DHT22;21379;50.962;6.960;2022-10-18T02:34:59;18.00;99.90
35246;DHT22;21379;50.962;6.960;2022-10-18T02:37:29;18.00;99.90
35246;DHT22;21379;50.962;6.960;2022-10-18T02:39:58;18.00;99.90
35246;DHT22;21379;50.962;6.960;2022-10-18T02:42:28;18.00;99.90
35246;DHT22;21379;50.962;6.960;2022-10-18T02:44:58;18.00;99.90
35246;DHT22;21379;50.962;6.960;2022-10-18T02:47:25;18.10;99.90
35246;DHT22;21379;50.962;6.960;2022-10-18T02:49:52;18.00;99.90
35246;DHT22;21379;50.962;6.960;2022-10-18T02:52:20;18.10;99.90
35246;DHT22;21379;50.962;6.960;2022-10-18T02:54:47;18.10;99.90
35246;DHT22;21379;50.962;6.960;2022-10-18T02:57:13;18.10;99.90
35246;DHT22;21379;50.962;6.960;2022-10-18T02:59:40;18.20;99.90
35246;DHT22;21379;50.962;6.960;2022-10-18T03:02:07;18.20;99.90
35246;DHT22;21379;50.962;6.960;2022-10-18T03:04:34;18.20;99.90
35246;DHT22;21379;50.962;6.960;2022-10-18T03:07:00;18.20;99.90
35246;DHT22;21379;50.962;6.960;2022-10-18T03:09:29;18.10;99.90
35246;DHT22;21379;50.962;6.960;2022-10-18T03:11:56;18.10;99.90
35246;DHT22;21379;50.962;6.960;2022-10-18T03:14:22;18.10;99.90
35246;DHT22;21379;50.962;6.960;2022-10-18T03:16:49;18.20;99.90
35246;DHT22;21379;50.962;6.960;2022-10-18T03:19:16;18.10;99.90
35246;DHT22;21379;50.962;6.960;2022-10-18T03:21:43;18.20;99.90
35246;DHT22;21379;50.962;6.960;2022-10-18T03:24:10;18.20;99.90
35246;DHT22;21379;50.962;6.960;2022-10-18T03:26:38;18.20;99.90
35246;DHT22;21379;50.962;6.960;2022-10-18T03:29:05;18.20;99.90
35246;DHT22;21379;50.962;6.960;2022-10-18T03:31:32;18.20;99.90
35246;DHT22;21379;50.962;6.960;2022-10-18T03:33:59;18.20;99.90
35246;DHT22;21379;50.962;6.960;2022-10-18T03:36:26;18.20;99.90
35246;DHT22;21379;50.962;6.960;2022-10-18T03:38:52;18.20;99.90
35246;DHT22;21379;50.962;6.960;2022-10-18T03:41:19;18.20;99.90
35246;DHT22;21379;50.962;6.960;2022-10-18T03:43:48;18.20;99.90
35246;DHT22;21379;50.962;6.960;2022-10-18T03:46:14;18.20;99.90
35246;DHT22;21379;50.962;6.960;2022-10-18T03:48:41;18.20;99.90
35246;DHT22;21379;50.962;6.960;2022-10-18T03:51:08;18.20;99.90
35246;DHT22;21379;50.962;6.960;2022-10-18T03:53:35;18.20;99.90
35246;DHT22;21379;50.962;6.960;2022-10-18T03:56:02;18.20;99.90
35246;DHT22;21379;50.962;6.960;2022-10-18T03:58:29;18.20;99.90
35246;DHT22;21379;50.962;6.960;2022-10-18T04:00:57;18.10;99.90
35246;DHT22;21379;50.962;6.960;2022-10-18T04:03:24;18.10;99.90
35246;DHT22;21379;50.962;6.960;2022-10-18T04:05:51;18.10;99.90
35246;DHT22;21379;50.962;6.960;2022-10-18T04:08:18;18.10;99.90
35246;DHT22;21379;50.962;6.960;2022-10-18T04:10:45;18.10;99.90
35246;DHT22;21379;50.962;6.960;2022-10-18T04:13:12;18.10;99.90
35246;DHT22;21379;50.962;6.960;2022-10-18T04:15:39;18.10;99.90
35246;DHT22;21379;50.962;6.960;2022-10-18T04:18:07;18.10;99.90
35246;DHT22;21379;50.962;6.960;2022-10-18T04:20:34;18.10;99.90
35246;DHT22;21379;50.962;6.960;2022-10-18T04:23:01;18.10;99.90
35246;DHT22;21379;50.962;6.960;2022-10-18T04:25:27;18.10;99.90
35246;DHT22;21379;50.962;6.960;2022-10-18T04:27:55;18.20;99.90
35246;DHT22;21379;50.962;6.960;2022-10-18T04:30:22;18.20;99.90
35246;DHT22;21379;50.962;6.960;2022-10-18T04:32:49;18.20;99.90
35246;DHT22;21379;50.962;6.960;2022-10-18T04:35:17;18.20;99.90
35246;DHT22;21379;50.962;6.960;2022-10-18T04:37:44;18.10;99.90
35246;DHT22;21379;50.962;6.960;2022-10-18T04:40:11;18.20;99.90
35246;DHT22;21379;50.962;6.960;2022-10-18T04:42:38;18.20;99.90
35246;DHT22;21379;50.962;6.960;2022-10-18T04:45:06;18.10;99.90
35246;DHT22;21379;50.962;6.960;2022-10-18T04:47:33;18.10;99.90
35246;DHT22;21379;50.962;6.960;2022-10-18T04:50:00;18.10;99.90
35246;DHT22;21379;50.962;6.960;2022-10-18T04:52:28;18.20;99.90
35246;DHT22;21379;50.962;6.960;2022-10-18T04:54:55;18.20;99.90
35246;DHT22;21379;50.962;6.960;2022-10-18T04:57:21;18.20;99.90
35246;DHT22;21379;50.962;6.960;2022-10-18T04:59:48;18.20;99.90
35246;DHT22;21379;50.962;6.960;2022-10-18T05:02:15;18.20;99.90
35246;DHT22;21379;50.962;6.960;2022-10-18T05:04:42;18.30;99.90
35246;DHT22;21379;50.962;6.960;2022-10-18T05:07:09;18.20;99.90
35246;DHT22;21379;50.962;6.960;2022-10-18T05:09:37;18.30;99.90
35246;DHT22;21379;50.962;6.960;2022-10-18T05:12:04;18.40;99.90
35246;DHT22;21379;50.962;6.960;2022-10-18T05:14:31;18.40;99.90
35246;DHT22;21379;50.962;6.960;2022-10-18T05:16:57;18.50;99.90
35246;DHT22;21379;50.962;6.960;2022-10-18T05:19:24;18.50;99.90
35246;DHT22;21379;50.962;6.960;2022-10-18T05:21:51;18.50;99.90
35246;DHT22;21379;50.962;6.960;2022-10-18T05:24:18;18.50;99.90
35246;DHT22;21379;50.962;6.960;2022-10-18T05:26:46;18.50;99.90
35246;DHT22;21379;50.962;6.960;2022-10-18T05:29:13;18.50;99.90
35246;DHT22;21379;50.962;6.960;2022-10-18T05:31:40;18.50;99.90
35246;DHT22;21379;50.962;6.960;2022-10-18T05:34:07;18.60;99.90
35246;DHT22;21379;50.962;6.960;2022-10-18T05:36:34;18.60;99.90
35246;DHT22;21379;50.962;6.960;2022-10-18T05:39:02;18.60;99.90
35246;DHT22;21379;50.962;6.960;2022-10-18T05:41:29;18.60;99.90
35246;DHT22;21379;50.962;6.960;2022-10-18T05:43:57;18.60;99.90
35246;DHT22;21379;50.962;6.960;2022-10-18T05:46:24;18.60;99.90
35246;DHT22;21379;50.962;6.960;2022-10-18T05:48:51;18.60;99.90
35246;DHT22;21379;50.962;6.960;2022-10-18T05:51:18;18.60;99.90
35246;DHT22;21379;50.962;6.960;2022-10-18T05:53:45;18.60;99.90
35246;DHT22;21379;50.962;6.960;2022-10-18T05:56:12;18.60;99.90
35246;DHT22;21379;50.962;6.960;2022-10-18T05:58:39;18.60;99.90
35246;DHT22;21379;50.962;6.960;2022-10-18T06:01:08;18.70;99.90
35246;DHT22;21379;50.962;6.960;2022-10-18T06:03:35;18.70;99.90
35246;DHT22;21379;50.962;6.960;2022-10-18T06:06:04;18.70;99.90
35246;DHT22;21379;50.962;6.960;2022-10-18T06:08:32;18.70;99.90
35246;DHT22;21379;50.962;6.960;2022-10-18T06:10:59;18.70;99.90
35246;DHT22;21379;50.962;6.960;2022-10-18T06:13:26;18.70;99.90
35246;DHT22;21379;50.962;6.960;2022-10-18T06:15:55;18.70;99.90
35246;DHT22;21379;50.962;6.960;2022-10-18T06:18:23;18.70;99.90
35246;DHT22;21379;50.962;6.960;2022-10-18T06:20:55;18.70;99.90
35246;DHT22;21379;50.962;6.960;2022-10-18T06:23:22;18.70;99.90
35246;DHT22;21379;50.962;6.960;2022-10-18T06:25:49;18.70;99.90
35246;DHT22;21379;50.962;6.960;2022-10-18T06:28:16;18.70;99.90
35246;DHT22;21379;50.962;6.960;2022-10-18T06:30:44;18.70;99.90
35246;DHT22;21379;50.962;6.960;2022-10-18T06:33:10;18.70;99.90
35246;DHT22;21379;50.962;6.960;2022-10-18T06:35:39;18.70;99.90
35246;DHT22;21379;50.962;6.960;2022-10-18T06:38:05;18.80;99.90
35246;DHT22;21379;50.962;6.960;2022-10-18T06:40:32;18.90;99.90
35246;DHT22;21379;50.962;6.960;2022-10-18T06:43:02;18.80;99.90
35246;DHT22;21379;50.962;6.960;2022-10-18T06:45:31;18.80;99.90
35246;DHT22;21379;50.962;6.960;2022-10-18T06:47:58;18.80;99.90
35246;DHT22;21379;50.962;6.960;2022-10-18T06:50:25;18.80;99.90
35246;DHT22;21379;50.962;6.960;2022-10-18T06:52:53;18.80;99.90
35246;DHT22;21379;50.962;6.960;2022-10-18T06:55:20;18.80;99.90
35246;DHT22;21379;50.962;6.960;2022-10-18T06:57:47;18.90;99.90
35246;DHT22;21379;50.962;6.960;2022-10-18T07:00:14;18.90;99.90
35246;DHT22;21379;50.962;6.960;2022-10-18T07:02:41;18.90;99.90
35246;DHT22;21379;50.962;6.960;2022-10-18T07:05:08;18.90;99.90
35246;DHT22;21379;50.962;6.960;2022-10-18T07:07:36;18.90;99.90
35246;DHT22;21379;50.962;6.960;2022-10-18T07:10:05;19.00;99.90
35246;DHT22;21379;50.962;6.960;2022-10-18T07:12:32;19.00;99.90
35246;DHT22;21379;50.962;6.960;2022-10-18T07:14:59;19.00;99.90
35246;DHT22;21379;50.962;6.960;2022-10-18T07:17:26;19.00;99.90
35246;DHT22;21379;50.962;6.960;2022-10-18T07:19:53;19.00;99.90
35246;DHT22;21379;50.962;6.960;2022-10-18T07:22:20;19.10;99.90
35246;DHT22;21379;50.962;6.960;2022-10-18T07:24:47;19.10;99.90
35246;DHT22;21379;50.962;6.960;2022-10-18T07:27:15;19.10;99.90
35246;DHT22;21379;50.962;6.960;2022-10-18T07:29:42;19.10;99.90
35246;DHT22;21379;50.962;6.960;2022-10-18T07:32:09;19.10;99.90
35246;DHT22;21379;50.962;6.960;2022-10-18T07:34:36;19.20;99.90
35246;DHT22;21379;50.962;6.960;2022-10-18T07:37:02;19.20;99.90
35246;DHT22;21379;50.962;6.960;2022-10-18T07:39:29;19.20;99.90
35246;DHT22;21379;50.962;6.960;2022-10-18T07:41:56;19.20;99.90
35246;DHT22;21379;50.962;6.960;2022-10-18T07:44:25;19.20;99.90
35246;DHT22;21379;50.962;6.960;2022-10-18T07:46:52;19.30;99.90
35246;DHT22;21379;50.962;6.960;2022-10-18T07:49:19;19.30;99.90
35246;DHT22;21379;50.962;6.960;2022-10-18T07:51:46;19.40;99.90
35246;DHT22;21379;50.962;6.960;2022-10-18T07:54:13;19.50;99.90
35246;DHT22;21379;50.962;6.960;2022-10-18T07:56:40;19.50;99.90
35246;DHT22;21379;50.962;6.960;2022-10-18T07:59:08;20.00;99.90
35246;DHT22;21379;50.962;6.960;2022-10-18T08:01:37;20.30;99.90
35246;DHT22;21379;50.962;6.960;2022-10-18T08:04:04;21.70;99.90
35246;DHT22;21379;50.962;6.960;2022-10-18T08:06:30;21.80;99.90
35246;DHT22;21379;50.962;6.960;2022-10-18T08:08:57;21.80;99.90
35246;DHT22;21379;50.962;6.960;2022-10-18T08:11:24;21.90;99.90
35246;DHT22;21379;50.962;6.960;2022-10-18T08:13:52;21.90;99.90
35246;DHT22;21379;50.962;6.960;2022-10-18T08:16:21;21.80;99.90
35246;DHT22;21379;50.962;6.960;2022-10-18T08:18:50;21.80;99.90
35246;DHT22;21379;50.962;6.960;2022-10-18T08:21:18;21.80;99.90
35246;DHT22;21379;50.962;6.960;2022-10-18T08:23:45;21.90;99.90
35246;DHT22;21379;50.962;6.960;2022-10-18T08:26:15;21.90;99.90
35246;DHT22;21379;50.962;6.960;2022-10-18T08:28:43;21.90;99.90
35246;DHT22;21379;50.962;6.960;2022-10-18T08:31:12;21.80;99.90
35246;DHT22;21379;50.962;6.960;2022-10-18T08:33:39;21.90;99.90
35246;DHT22;21379;50.962;6.960;2022-10-18T08:36:08;21.90;99.90
35246;DHT22;21379;50.962;6.960;2022-10-18T08:38:38;21.90;99.90
35246;DHT22;21379;50.962;6.960;2022-10-18T08:41:28;21.90;99.90
35246;DHT22;21379;50.962;6.960;2022-10-18T08:44:04;21.90;99.90
35246;DHT22;21379;50.962;6.960;2022-10-18T08:46:31;21.90;99.90
35246;DHT22;21379;50.962;6.960;2022-10-18T08:48:58;21.90;99.90
35246;DHT22;21379;50.962;6.960;2022-10-18T08:51:32;21.90;99.90
35246;DHT22;21379;50.962;6.960;2022-10-18T08:54:05;21.90;99.90
35246;DHT22;21379;50.962;6.960;2022-10-18T08:56:33;21.90;99.90
35246;DHT22;21379;50.962;6.960;2022-10-18T08:59:01;21.90;99.90
35246;DHT22;21379;50.962;6.960;2022-10-18T09:01:38;21.80;99.90
35246;DHT22;21379;50.962;6.960;2022-10-18T09:04:22;21.80;99.90
35246;DHT22;21379;50.962;6.960;2022-10-18T09:07:02;21.80;99.90
35246;DHT22;21379;50.962;6.960;2022-10-18T09:09:36;21.80;99.90
35246;DHT22;21379;50.962;6.960;2022-10-18T09:12:19;21.80;99.90
35246;DHT22;21379;50.962;6.960;2022-10-18T09:15:07;21.80;99.90
35246;DHT22;21379;50.962;6.960;2022-10-18T09:17:47;21.80;99.90
35246;DHT22;21379;50.962;6.960;2022-10-18T09:20:22;21.80;99.90
35246;DHT22;21379;50.962;6.960;2022-10-18T09:22:54;22.00;99.90
35246;DHT22;21379;50.962;6.960;2022-10-18T09:25:23;22.20;99.90
35246;DHT22;21379;50.962;6.960;2022-10-18T09:27:52;22.20;99.90
35246;DHT22;21379;50.962;6.960;2022-10-18T09:30:28;22.20;99.90
35246;DHT22;21379;50.962;6.960;2022-10-18T09:33:13;22.30;99.90
35246;DHT22;21379;50.962;6.960;2022-10-18T09:35:46;22.20;99.90
35246;DHT22;21379;50.962;6.960;2022-10-18T09:38:18;22.20;99.90
35246;DHT22;21379;50.962;6.960;2022-10-18T09:40:52;22.30;99.90
35246;DHT22;21379;50.962;6.960;2022-10-18T09:43:22;22.30;99.90
35246;DHT22;21379;50.962;6.960;2022-10-18T09:45:52;22.40;99.90
35246;DHT22;21379;50.962;6.960;2022-10-18T09:48:22;22.40;99.90
35246;DHT22;21379;50.962;6.960;2022-10-18T09:50:55;22.30;99.90
35246;DHT22;21379;50.962;6.960;2022-10-18T09:53:30;22.40;99.90
35246;DHT22;21379;50.962;6.960;2022-10-18T09:56:02;22.40;99.90
35246;DHT22;21379;50.962;6.960;2022-10-18T09:58:40;22.40;99.90
35246;DHT22;21379;50.962;6.960;2022-10-18T10:01:09;22.40;99.90
35246;DHT22;21379;50.962;6.960;2022-10-18T10:03:38;22.40;99.90
35246;DHT22;21379;50.962;6.960;2022-10-18T10:06:23;22.50;99.90
35246;DHT22;21379;50.962;6.960;2022-10-18T10:08:57;22.60;99.90
35246;DHT22;21379;50.962;6.960;2022-10-18T10:11:26;22.50;99.90
35246;DHT22;21379;50.962;6.960;2022-10-18T10:13:56;22.30;99.90
35246;DHT22;21379;50.962;6.960;2022-10-18T10:16:24;22.40;99.90
35246;DHT22;21379;50.962;6.960;2022-10-18T10:18:53;22.40;99.90
35246;DHT22;21379;50.962;6.960;2022-10-18T10:21:20;22.20;99.90
35246;DHT22;21379;50.962;6.960;2022-10-18T10:23:51;21.80;99.90
35246;DHT22;21379;50.962;6.960;2022-10-18T10:26:23;21.50;99.90
35246;DHT22;21379;50.962;6.960;2022-10-18T10:28:50;21.10;99.90
35246;DHT22;21379;50.962;6.960;2022-10-18T10:31:25;21.00;99.90
35246;DHT22;21379;50.962;6.960;2022-10-18T10:33:58;21.00;99.90
35246;DHT22;21379;50.962;6.960;2022-10-18T10:36:25;21.00;99.90
35246;DHT22;21379;50.962;6.960;2022-10-18T10:39:03;21.00;99.90
35246;DHT22;21379;50.962;6.960;2022-10-18T10:41:32;20.90;99.90
35246;DHT22;21379;50.962;6.960;2022-10-18T10:44:01;20.90;99.90
35246;DHT22;21379;50.962;6.960;2022-10-18T10:46:33;20.90;99.90
35246;DHT22;21379;50.962;6.960;2022-10-18T10:49:01;20.90;99.90
35246;DHT22;21379;50.962;6.960;2022-10-18T10:51:29;20.90;99.90
35246;DHT22;21379;50.962;6.960;2022-10-18T10:54:00;21.00;99.90
35246;DHT22;21379;50.962;6.960;2022-10-18T10:56:29;21.00;99.90
35246;DHT22;21379;50.962;6.960;2022-10-18T10:59:05;21.10;99.90
35246;DHT22;21379;50.962;6.960;2022-10-18T11:01:33;21.20;99.90
35246;DHT22;21379;50.962;6.960;2022-10-18T11:04:02;21.10;99.90
35246;DHT22;21379;50.962;6.960;2022-10-18T11:06:52;21.00;99.90
35246;DHT22;21379;50.962;6.960;2022-10-18T11:09:52;21.10;99.90
35246;DHT22;21379;50.962;6.960;2022-10-18T11:12:31;21.20;99.90
35246;DHT22;21379;50.962;6.960;2022-10-18T11:15:17;20.90;99.90
35246;DHT22;21379;50.962;6.960;2022-10-18T11:17:53;20.90;99.90
35246;DHT22;21379;50.962;6.960;2022-10-18T11:20:26;20.90;99.90
35246;DHT22;21379;50.962;6.960;2022-10-18T11:23:00;21.00;99.90
35246;DHT22;21379;50.962;6.960;2022-10-18T11:25:48;21.00;99.90
35246;DHT22;21379;50.962;6.960;2022-10-18T11:28:29;20.90;99.90
35246;DHT22;21379;50.962;6.960;2022-10-18T11:31:10;21.00;99.90
35246;DHT22;21379;50.962;6.960;2022-10-18T11:33:49;20.80;99.90
35246;DHT22;21379;50.962;6.960;2022-10-18T11:36:23;20.70;99.90
35246;DHT22;21379;50.962;6.960;2022-10-18T11:38:55;20.60;99.90
35246;DHT22;21379;50.962;6.960;2022-10-18T11:41:30;20.40;99.90
35246;DHT22;21379;50.962;6.960;2022-10-18T11:44:01;20.10;99.90
35246;DHT22;21379;50.962;6.960;2022-10-18T11:46:40;19.70;99.90
35246;DHT22;21379;50.962;6.960;2022-10-18T11:49:26;19.50;99.90
35246;DHT22;21379;50.962;6.960;2022-10-18T11:52:02;19.40;99.90
35246;DHT22;21379;50.962;6.960;2022-10-18T11:54:42;19.30;99.90
35246;DHT22;21379;50.962;6.960;2022-10-18T11:57:22;19.30;99.90
35246;DHT22;21379;50.962;6.960;2022-10-18T11:59:58;19.10;99.90
35246;DHT22;21379;50.962;6.960;2022-10-18T12:02:44;18.90;99.90
35246;DHT22;21379;50.962;6.960;2022-10-18T12:05:14;19.10;99.90
35246;DHT22;21379;50.962;6.960;2022-10-18T12:07:52;19.40;99.90
35246;DHT22;21379;50.962;6.960;2022-10-18T12:10:21;19.30;99.90
35246;DHT22;21379;50.962;6.960;2022-10-18T12:12:52;19.00;99.90
35246;DHT22;21379;50.962;6.960;2022-10-18T12:15:22;18.90;99.90
35246;DHT22;21379;50.962;6.960;2022-10-18T12:17:53;19.00;99.90
35246;DHT22;21379;50.962;6.960;2022-10-18T12:20:26;19.10;99.90
35246;DHT22;21379;50.962;6.960;2022-10-18T12:22:58;19.10;99.90
35246;DHT22;21379;50.962;6.960;2022-10-18T12:25:27;19.30;99.90
35246;DHT22;21379;50.962;6.960;2022-10-18T12:27:57;19.50;99.90
35246;DHT22;21379;50.962;6.960;2022-10-18T12:30:30;19.60;99.90
35246;DHT22;21379;50.962;6.960;2022-10-18T12:33:04;19.60;99.90
35246;DHT22;21379;50.962;6.960;2022-10-18T12:35:43;19.70;99.90
35246;DHT22;21379;50.962;6.960;2022-10-18T12:38:19;19.60;99.90
35246;DHT22;21379;50.962;6.960;2022-10-18T12:40:49;19.80;99.90
35246;DHT22;21379;50.962;6.960;2022-10-18T12:43:17;19.60;99.90
35246;DHT22;21379;50.962;6.960;2022-10-18T12:45:49;19.50;99.90
35246;DHT22;21379;50.962;6.960;2022-10-18T12:48:35;19.20;99.90
35246;DHT22;21379;50.962;6.960;2022-10-18T12:51:12;19.20;99.90
35246;DHT22;21379;50.962;6.960;2022-10-18T12:53:40;19.50;99.90
35246;DHT22;21379;50.962;6.960;2022-10-18T12:56:32;19.60;99.90
35246;DHT22;21379;50.962;6.960;2022-10-18T13:02:34;19.50;99.90
35246;DHT22;21379;50.962;6.960;2022-10-18T13:08:33;19.30;99.90
35246;DHT22;21379;50.962;6.960;2022-10-18T13:11:26;19.40;99.90
35246;DHT22;21379;50.962;6.960;2022-10-18T13:14:08;19.30;99.90
35246;DHT22;21379;50.962;6.960;2022-10-18T13:16:38;19.40;99.90
35246;DHT22;21379;50.962;6.960;2022-10-18T13:19:22;19.50;99.90
35246;DHT22;21379;50.962;6.960;2022-10-18T13:21:57;19.50;99.90
35246;DHT22;21379;50.962;6.960;2022-10-18T13:24:31;19.60;99.90
35246;DHT22;21379;50.962;6.960;2022-10-18T13:27:12;19.50;99.90
35246;DHT22;21379;50.962;6.960;2022-10-18T13:29:57;19.40;99.90
35246;DHT22;21379;50.962;6.960;2022-10-18T13:32:31;19.70;99.90
35246;DHT22;21379;50.962;6.960;2022-10-18T13:34:59;19.40;99.90
35246;DHT22;21379;50.962;6.960;2022-10-18T13:37:26;19.30;99.90
35246;DHT22;21379;50.962;6.960;2022-10-18T13:40:14;19.30;99.90
35246;DHT22;21379;50.962;6.960;2022-10-18T13:42:41;19.30;99.90
35246;DHT22;21379;50.962;6.960;2022-10-18T13:45:43;19.30;99.90
35246;DHT22;21379;50.962;6.960;2022-10-18T13:48:48;19.20;99.90
35246;DHT22;21379;50.962;6.960;2022-10-18T13:51:48;19.10;99.90
35246;DHT22;21379;50.962;6.960;2022-10-18T13:54:49;19.00;99.90
35246;DHT22;21379;50.962;6.960;2022-10-18T13:57:49;19.00;99.90
35246;DHT22;21379;50.962;6.960;2022-10-18T14:00:45;19.10;99.90
35246;DHT22;21379;50.962;6.960;2022-10-18T14:03:28;19.10;99.90
35246;DHT22;21379;50.962;6.960;2022-10-18T14:06:04;19.30;99.90
35246;DHT22;21379;50.962;6.960;2022-10-18T14:08:34;19.40;99.90
35246;DHT22;21379;50.962;6.960;2022-10-18T14:11:05;19.50;99.90
35246;DHT22;21379;50.962;6.960;2022-10-18T14:13:42;19.40;99.90
35246;DHT22;21379;50.962;6.960;2022-10-18T14:16:22;19.30;99.90
35246;DHT22;21379;50.962;6.960;2022-10-18T14:18:56;19.20;99.90
35246;DHT22;21379;50.962;6.960;2022-10-18T14:21:32;19.00;99.90
35246;DHT22;21379;50.962;6.960;2022-10-18T14:24:01;19.10;99.90
35246;DHT22;21379;50.962;6.960;2022-10-18T14:26:28;19.00;99.90
35246;DHT22;21379;50.962;6.960;2022-10-18T14:29:04;18.70;99.90
35246;DHT22;21379;50.962;6.960;2022-10-18T14:31:31;18.50;99.90
35246;DHT22;21379;50.962;6.960;2022-10-18T14:33:59;18.40;99.90
35246;DHT22;21379;50.962;6.960;2022-10-18T14:36:38;18.30;99.90
35246;DHT22;21379;50.962;6.960;2022-10-18T14:39:12;18.30;99.90
35246;DHT22;21379;50.962;6.960;2022-10-18T14:41:47;18.30;99.90
35246;DHT22;21379;50.962;6.960;2022-10-18T14:44:19;18.30;99.90
35246;DHT22;21379;50.962;6.960;2022-10-18T14:46:48;18.30;99.90
35246;DHT22;21379;50.962;6.960;2022-10-18T14:49:16;18.20;99.90
35246;DHT22;21379;50.962;6.960;2022-10-18T14:51:45;18.20;99.90
35246;DHT22;21379;50.962;6.960;2022-10-18T14:54:14;18.20;99.90
35246;DHT22;21379;50.962;6.960;2022-10-18T14:56:42;18.20;99.90
35246;DHT22;21379;50.962;6.960;2022-10-18T14:59:14;18.20;99.90
35246;DHT22;21379;50.962;6.960;2022-10-18T15:01:50;18.20;99.90
35246;DHT22;21379;50.962;6.960;2022-10-18T15:04:18;18.10;99.90
35246;DHT22;21379;50.962;6.960;2022-10-18T15:06:45;18.10;99.90
35246;DHT22;21379;50.962;6.960;2022-10-18T15:09:15;18.00;99.90
35246;DHT22;21379;50.962;6.960;2022-10-18T15:11:46;18.00;99.90
35246;DHT22;21379;50.962;6.960;2022-10-18T15:14:16;18.00;99.90
35246;DHT22;21379;50.962;6.960;2022-10-18T15:16:45;18.00;99.90
35246;DHT22;21379;50.962;6.960;2022-10-18T15:19:51;18.00;99.90
35246;DHT22;21379;50.962;6.960;2022-10-18T15:22:22;17.90;99.90
35246;DHT22;21379;50.962;6.960;2022-10-18T15:25:13;17.80;99.90
35246;DHT22;21379;50.962;6.960;2022-10-18T15:27:42;17.80;99.90
35246;DHT22;21379;50.962;6.960;2022-10-18T15:30:20;17.70;99.90
35246;DHT22;21379;50.962;6.960;2022-10-18T15:32:51;17.70;99.90
35246;DHT22;21379;50.962;6.960;2022-10-18T15:35:22;17.70;99.90
35246;DHT22;21379;50.962;6.960;2022-10-18T15:37:50;17.60;99.90
35246;DHT22;21379;50.962;6.960;2022-10-18T15:40:28;17.60;99.90
35246;DHT22;21379;50.962;6.960;2022-10-18T15:42:57;17.60;99.90
35246;DHT22;21379;50.962;6.960;2022-10-18T15:45:30;17.50;99.90
35246;DHT22;21379;50.962;6.960;2022-10-18T15:48:16;17.50;99.90
35246;DHT22;21379;50.962;6.960;2022-10-18T15:50:45;17.50;99.90
35246;DHT22;21379;50.962;6.960;2022-10-18T15:53:31;17.40;99.90
35246;DHT22;21379;50.962;6.960;2022-10-18T15:56:01;17.40;99.90
35246;DHT22;21379;50.962;6.960;2022-10-18T15:58:35;17.30;99.90
35246;DHT22;21379;50.962;6.960;2022-10-18T16:01:04;17.30;99.90
35246;DHT22;21379;50.962;6.960;2022-10-18T16:03:34;17.20;99.90
35246;DHT22;21379;50.962;6.960;2022-10-18T16:06:04;17.30;99.90